createdAt,value
2022-08-11T00:01:22.150Z,19.70
2022-08-11T00:04:02.703Z,19.60
2022-08-11T00:06:35.361Z,19.60
2022-08-11T00:09:07.052Z,19.70
2022-08-11T00:11:39.916Z,19.70
2022-08-11T00:14:19.448Z,19.60
2022-08-11T00:17:02.389Z,19.30
2022-08-11T00:20:15.055Z,19.10
2022-08-11T00:22:23.613Z,19.00
2022-08-11T00:24:55.117Z,19.00
2022-08-11T00:27:36.239Z,19.00
2022-08-11T00:30:06.420Z,19.00
2022-08-11T00:32:36.487Z,19.10
2022-08-11T00:35:54.808Z,19.20
2022-08-11T00:37:57.129Z,19.20
2022-08-11T00:40:38.875Z,19.30
2022-08-11T00:43:20.252Z,19.40
2022-08-11T00:46:26.661Z,19.40
2022-08-11T00:49:23.980Z,19.60
2022-08-11T00:52:22.461Z,19.70
2022-08-11T00:55:09.010Z,19.70
2022-08-11T00:57:56.105Z,19.70
2022-08-11T01:00:34.404Z,19.70
2022-08-11T01:03:18.712Z,19.70
2022-08-11T01:05:55.500Z,19.60
2022-08-11T01:08:51.888Z,19.50
2022-08-11T01:12:08.093Z,19.20
2022-08-11T01:14:57.045Z,19.20
2022-08-11T01:17:34.255Z,19.00
2022-08-11T01:20:45.728Z,19.00
2022-08-11T01:23:22.619Z,18.90
2022-08-11T01:26:17.871Z,18.90
2022-08-11T01:29:03.116Z,19.00
2022-08-11T01:31:45.694Z,18.90
2022-08-11T01:34:43.743Z,18.90
2022-08-11T01:37:29.127Z,18.90
2022-08-11T01:40:17.849Z,19.00
2022-08-11T01:43:20.536Z,19.20
2022-08-11T01:46:16.664Z,19.50
2022-08-11T01:50:07.795Z,19.30
2022-08-11T01:52:35.240Z,19.10
2022-08-11T01:55:51.517Z,19.00
2022-08-11T01:58:43.764Z,19.10
2022-08-11T02:01:24.162Z,19.20
2022-08-11T02:04:20.621Z,19.10
2022-08-11T02:07:03.155Z,19.20
2022-08-11T02:09:34.614Z,19.20
2022-08-11T02:12:31.102Z,19.30
2022-08-11T02:15:20.729Z,19.30
2022-08-11T02:18:13.689Z,19.30
2022-08-11T02:21:24.478Z,19.30
2022-08-11T02:24:11.479Z,19.30
2022-08-11T02:26:46.977Z,19.30
2022-08-11T02:29:47.625Z,19.30
2022-08-11T02:32:55.112Z,19.30
2022-08-11T02:35:42.972Z,19.30
2022-08-11T02:38:32.570Z,19.20
2022-08-11T02:41:55.852Z,19.10
2022-08-11T02:44:54.069Z,19.00
2022-08-11T02:48:06.207Z,19.00
2022-08-11T02:50:41.524Z,19.00
2022-08-11T02:53:38.154Z,18.90
2022-08-11T02:56:26.793Z,18.90
2022-08-11T02:59:50.409Z,18.90
2022-08-11T03:02:27.976Z,18.90
2022-08-11T03:05:11.985Z,18.80
2022-08-11T03:08:07.658Z,18.80
2022-08-11T03:11:19.124Z,18.80
2022-08-11T03:14:18.769Z,18.70
2022-08-11T03:16:55.058Z,18.80
2022-08-11T03:19:42.450Z,18.80
2022-08-11T03:22:23.765Z,18.90
2022-08-11T03:25:13.514Z,18.80
2022-08-11T03:28:30.458Z,18.70
2022-08-11T03:31:10.845Z,18.80
2022-08-11T03:34:06.668Z,18.80
2022-08-11T03:37:16.805Z,18.90
2022-08-11T03:40:38.417Z,18.90
2022-08-11T03:43:50.177Z,18.80
2022-08-11T03:46:45.352Z,18.70
2022-08-11T03:49:39.798Z,18.60
2022-08-11T03:52:34.864Z,18.60
2022-08-11T03:55:13.788Z,18.60
2022-08-11T03:58:18.631Z,18.60
2022-08-11T04:01:07.461Z,18.60
2022-08-11T04:03:35.501Z,18.60
2022-08-11T04:06:19.516Z,18.70
2022-08-11T04:09:26.535Z,18.70
2022-08-11T04:12:36.150Z,18.60
2022-08-11T04:15:31.965Z,18.60
2022-08-11T04:18:17.782Z,18.60
2022-08-11T04:20:55.738Z,18.60
2022-08-11T04:24:35.873Z,18.60
2022-08-11T04:26:45.477Z,18.50
2022-08-11T04:30:01.016Z,18.60
2022-08-11T04:32:49.788Z,18.60
2022-08-11T04:35:48.585Z,18.60
2022-08-11T04:38:49.254Z,18.70
2022-08-11T04:42:09.501Z,18.80
2022-08-11T04:45:17.312Z,18.80
2022-08-11T04:48:22.457Z,18.80
2022-08-11T04:51:27.280Z,18.80
2022-08-11T04:54:28.485Z,18.80
2022-08-11T04:57:22.951Z,19.00
2022-08-11T05:00:31.476Z,19.20
2022-08-11T05:03:17.301Z,19.50
2022-08-11T05:06:08.543Z,19.70
2022-08-11T05:08:56.711Z,19.70
2022-08-11T05:11:44.946Z,19.70
2022-08-11T05:14:31.047Z,19.70
2022-08-11T05:17:27.475Z,19.80
2022-08-11T05:20:13.732Z,20.00
2022-08-11T05:23:09.470Z,20.30
2022-08-11T05:26:44.597Z,20.50
2022-08-11T05:29:20.297Z,20.70
2022-08-11T05:32:18.362Z,20.60
2022-08-11T05:34:54.132Z,20.80
2022-08-11T05:37:34.186Z,21.10
2022-08-11T05:40:31.862Z,21.20
2022-08-11T05:43:21.118Z,21.20
2022-08-11T05:46:18.497Z,21.70
2022-08-11T05:49:06.316Z,21.90
2022-08-11T05:52:05.617Z,21.90
2022-08-11T05:55:07.187Z,21.50
2022-08-11T05:57:48.588Z,21.00
2022-08-11T06:00:20.993Z,21.20
2022-08-11T06:02:57.163Z,21.20
2022-08-11T06:05:43.913Z,21.30
2022-08-11T06:08:13.766Z,21.70
2022-08-11T06:10:45.389Z,21.80
2022-08-11T06:13:17.582Z,21.70
2022-08-11T06:15:50.810Z,22.20
2022-08-11T06:18:19.927Z,22.80
2022-08-11T06:20:50.287Z,23.10
2022-08-11T06:23:20.501Z,23.50
2022-08-11T06:25:49.594Z,23.90
2022-08-11T06:28:21.068Z,24.20
2022-08-11T06:30:49.600Z,24.40
2022-08-11T06:33:30.154Z,23.80
2022-08-11T06:36:11.879Z,23.80
2022-08-11T06:39:01.586Z,24.10
2022-08-11T06:41:58.762Z,24.30
2022-08-11T06:45:19.778Z,24.20
2022-08-11T06:47:48.771Z,24.30
2022-08-11T06:50:40.373Z,24.30
2022-08-11T06:53:10.705Z,24.30
2022-08-11T06:56:05.553Z,24.80
2022-08-11T06:59:01.126Z,25.10
2022-08-11T07:01:54.645Z,25.20
2022-08-11T07:04:53.309Z,25.30
2022-08-11T07:08:33.983Z,25.10
2022-08-11T07:11:46.509Z,25.30
2022-08-11T07:14:42.274Z,24.60
2022-08-11T07:17:15.887Z,24.50
2022-08-11T07:20:15.191Z,24.30
2022-08-11T07:23:09.375Z,24.80
2022-08-11T07:26:05.081Z,25.10
2022-08-11T07:28:58.238Z,25.30
2022-08-11T07:31:45.063Z,25.60
2022-08-11T07:34:32.886Z,26.30
2022-08-11T07:37:10.262Z,26.40
2022-08-11T07:39:39.403Z,26.90
2022-08-11T07:42:10.644Z,26.70
2022-08-11T07:45:00.225Z,26.80
2022-08-11T07:47:47.999Z,27.10
2022-08-11T07:50:34.728Z,27.00
2022-08-11T07:53:04.236Z,27.10
2022-08-11T07:55:50.783Z,26.60
2022-08-11T07:58:45.444Z,26.70
2022-08-11T08:01:41.677Z,27.80
2022-08-11T08:04:32.854Z,27.70
2022-08-11T08:07:24.686Z,27.60
2022-08-11T08:10:14.224Z,28.10
2022-08-11T08:13:03.304Z,27.30
2022-08-11T08:15:50.084Z,27.70
2022-08-11T08:18:26.132Z,27.90
2022-08-11T08:21:12.075Z,27.80
2022-08-11T08:23:44.465Z,28.30
2022-08-11T08:26:35.903Z,28.10
2022-08-11T08:29:25.892Z,28.50
2022-08-11T08:31:56.081Z,28.40
2022-08-11T08:34:24.672Z,28.90
2022-08-11T08:36:53.800Z,29.20
2022-08-11T08:39:26.567Z,29.50
2022-08-11T08:41:57.116Z,28.70
2022-08-11T08:44:38.277Z,28.70
2022-08-11T08:47:13.454Z,28.80
2022-08-11T08:49:50.734Z,29.20
2022-08-11T08:52:33.317Z,29.30
2022-08-11T08:55:06.852Z,29.50
2022-08-11T08:57:39.875Z,30.00
2022-08-11T09:00:13.109Z,30.40
2022-08-11T09:02:45.644Z,30.40
2022-08-11T09:05:16.827Z,30.60
2022-08-11T09:07:49.316Z,30.30
2022-08-11T09:10:20.441Z,30.60
2022-08-11T09:12:53.662Z,29.60
2022-08-11T09:15:23.682Z,29.50
2022-08-11T09:18:06.223Z,29.20
2022-08-11T09:20:36.841Z,29.50
2022-08-11T09:26:33.649Z,29.70
2022-08-11T09:29:04.641Z,29.90
2022-08-11T09:31:40.138Z,30.20
2022-08-11T09:34:36.695Z,29.60
2022-08-11T09:37:53.467Z,29.60
2022-08-11T09:40:30.560Z,29.70
2022-08-11T09:43:19.940Z,30.20
2022-08-11T09:45:51.676Z,30.40
2022-08-11T09:48:20.262Z,30.00
2022-08-11T09:51:01.651Z,30.40
2022-08-11T09:53:40.892Z,30.70
2022-08-11T09:56:34.633Z,31.00
2022-08-11T09:59:04.530Z,31.20
2022-08-11T10:01:42.350Z,31.40
2022-08-11T10:04:23.169Z,30.60
2022-08-11T10:07:04.687Z,30.30
2022-08-11T10:10:11.822Z,30.00
2022-08-11T10:12:46.417Z,29.80
2022-08-11T10:15:38.643Z,30.10
2022-08-11T10:18:41.431Z,30.60
2022-08-11T10:21:15.689Z,30.30
2022-08-11T10:24:05.762Z,29.80
2022-08-11T10:27:06.336Z,29.90
2022-08-11T10:29:58.279Z,30.30
2022-08-11T10:32:58.939Z,30.40
2022-08-11T10:35:32.655Z,30.10
2022-08-11T10:38:08.719Z,30.30
2022-08-11T10:40:40.467Z,29.70
2022-08-11T10:44:01.718Z,29.40
2022-08-11T10:46:29.848Z,29.70
2022-08-11T10:49:00.056Z,30.00
2022-08-11T10:51:50.714Z,30.40
2022-08-11T10:54:41.345Z,30.60
2022-08-11T10:57:28.941Z,30.50
2022-08-11T10:59:58.002Z,30.50
2022-08-11T11:02:29.812Z,30.00
2022-08-11T11:04:59.809Z,30.10
2022-08-11T11:08:08.943Z,30.30
2022-08-11T11:10:41.033Z,30.80
2022-08-11T11:13:27.520Z,30.00
2022-08-11T11:16:13.906Z,30.10
2022-08-11T11:18:43.024Z,29.70
2022-08-11T11:21:18.655Z,30.30
2022-08-11T11:24:41.248Z,30.30
2022-08-11T11:27:26.100Z,29.70
2022-08-11T11:30:09.328Z,30.20
2022-08-11T11:33:19.485Z,30.70
2022-08-11T11:36:29.785Z,31.30
2022-08-11T11:39:05.598Z,30.40
2022-08-11T11:41:33.862Z,30.50
2022-08-11T11:44:02.062Z,30.80
2022-08-11T11:46:31.765Z,30.70
2022-08-11T11:49:10.713Z,30.70
2022-08-11T11:51:50.029Z,31.00
2022-08-11T11:54:23.932Z,31.20
2022-08-11T11:56:53.356Z,31.30
2022-08-11T11:59:41.563Z,31.20
2022-08-11T12:02:11.744Z,30.80
2022-08-11T12:04:45.675Z,30.10
2022-08-11T12:07:32.576Z,29.80
2022-08-11T12:10:01.467Z,29.90
2022-08-11T12:16:31.504Z,29.60
2022-08-11T12:18:34.370Z,29.60
2022-08-11T12:21:04.223Z,29.50
2022-08-11T12:23:53.617Z,29.00
2022-08-11T12:27:16.715Z,28.40
2022-08-11T12:29:41.224Z,28.00
2022-08-11T12:32:12.774Z,27.80
2022-08-11T12:34:40.853Z,27.50
2022-08-11T12:37:38.295Z,27.30
2022-08-11T12:40:48.816Z,26.80
2022-08-11T12:43:40.961Z,26.40
2022-08-11T12:46:19.234Z,26.40
2022-08-11T12:49:10.802Z,26.30
2022-08-11T12:52:14.047Z,26.20
2022-08-11T12:54:57.875Z,26.10
2022-08-11T12:57:48.638Z,25.90
2022-08-11T13:00:36.428Z,25.80
2022-08-11T13:03:26.251Z,25.70
2022-08-11T13:05:57.496Z,25.60
2022-08-11T13:08:27.904Z,25.50
2022-08-11T13:11:18.021Z,25.50
2022-08-11T13:13:54.580Z,25.40
2022-08-11T13:16:30.738Z,25.30
2022-08-11T13:19:01.187Z,25.20
2022-08-11T13:26:49.366Z,25.10
2022-08-11T13:29:20.220Z,24.90
2022-08-11T13:31:49.312Z,24.90
2022-08-11T13:34:18.057Z,24.90
2022-08-11T13:36:46.103Z,24.80
2022-08-11T13:39:14.379Z,24.90
2022-08-11T13:41:45.300Z,24.90
2022-08-11T13:44:21.665Z,24.90
2022-08-11T13:46:56.349Z,24.80
2022-08-11T13:49:25.171Z,24.60
2022-08-11T13:51:55.342Z,24.70
2022-08-11T13:54:27.510Z,24.70
2022-08-11T13:57:01.386Z,24.80
2022-08-11T13:59:31.413Z,25.00
2022-08-11T14:02:28.781Z,25.40
2022-08-11T14:05:01.467Z,25.50
2022-08-11T14:07:45.647Z,25.40
2022-08-11T14:10:16.341Z,25.30
2022-08-11T14:13:12.539Z,25.30
2022-08-11T14:15:45.609Z,25.50
2022-08-11T14:18:26.782Z,25.20
2022-08-11T14:21:18.632Z,25.40
2022-08-11T14:23:50.355Z,25.40
2022-08-11T14:26:23.637Z,25.50
2022-08-11T14:29:00.652Z,25.60
2022-08-11T14:31:33.751Z,25.70
2022-08-11T14:34:07.660Z,25.70
2022-08-11T14:36:41.933Z,25.90
2022-08-11T14:39:13.383Z,25.80
2022-08-11T14:42:10.686Z,25.70
2022-08-11T14:45:20.308Z,25.90
2022-08-11T14:47:57.422Z,26.10
2022-08-11T14:50:28.529Z,26.50
2022-08-11T14:53:22.717Z,26.50
2022-08-11T14:56:10.208Z,26.60
2022-08-11T14:58:42.063Z,26.60
2022-08-11T15:01:30.657Z,26.60
2022-08-11T15:04:25.123Z,26.60
2022-08-11T15:06:48.570Z,26.80
2022-08-11T15:09:17.100Z,26.70
2022-08-11T15:12:03.828Z,26.70
2022-08-11T15:14:55.926Z,26.80
2022-08-11T15:17:32.314Z,26.90
2022-08-11T15:20:32.690Z,27.00
2022-08-11T15:23:21.151Z,27.20
2022-08-11T15:25:55.297Z,27.30
2022-08-11T15:28:43.068Z,27.20
2022-08-11T15:31:30.549Z,27.10
2022-08-11T15:34:22.339Z,27.00
2022-08-11T15:37:13.744Z,27.00
2022-08-11T15:40:33.009Z,26.90
2022-08-11T15:43:52.180Z,26.70
2022-08-11T15:47:01.662Z,26.80
2022-08-11T15:50:10.510Z,26.90
2022-08-11T15:52:32.147Z,26.90
2022-08-11T15:55:05.284Z,26.90
2022-08-11T15:57:56.454Z,26.80
2022-08-11T16:00:43.935Z,26.80
2022-08-11T16:04:06.815Z,26.90
2022-08-11T16:06:37.832Z,26.80
2022-08-11T16:09:18.426Z,26.80
2022-08-11T16:11:48.584Z,26.80
2022-08-11T16:14:36.154Z,26.40
2022-08-11T16:17:06.543Z,26.30
2022-08-11T16:19:36.740Z,26.30
2022-08-11T16:22:09.269Z,26.40
2022-08-11T16:27:01.997Z,26.40
2022-08-11T16:27:39.201Z,26.50
2022-08-11T16:30:08.789Z,26.40
2022-08-11T16:32:42.712Z,26.30
2022-08-11T16:35:37.154Z,26.20
2022-08-11T16:38:26.105Z,25.90
2022-08-11T16:40:56.153Z,25.70
2022-08-11T16:43:46.215Z,25.70
2022-08-11T16:46:39.949Z,25.70
2022-08-11T16:49:19.227Z,25.70
2022-08-11T16:51:47.962Z,25.70
2022-08-11T16:54:15.946Z,25.60
2022-08-11T16:56:52.408Z,25.70
2022-08-11T16:59:25.988Z,25.80
2022-08-11T17:01:59.409Z,25.90
2022-08-11T17:05:10.196Z,25.90
2022-08-11T17:08:01.237Z,25.90
2022-08-11T17:11:06.098Z,26.10
2022-08-11T17:13:43.646Z,26.10
2022-08-11T17:16:14.527Z,26.10
2022-08-11T17:18:51.597Z,26.10
2022-08-11T17:21:26.765Z,26.00
2022-08-11T17:23:58.920Z,26.00
2022-08-11T17:26:57.174Z,26.00
2022-08-11T17:29:27.269Z,25.90
2022-08-11T17:32:14.801Z,25.70
2022-08-11T17:35:05.667Z,25.70
2022-08-11T17:37:36.075Z,25.70
2022-08-11T17:40:07.494Z,25.60
2022-08-11T17:42:54.647Z,25.50
2022-08-11T17:45:42.416Z,25.50
2022-08-11T17:48:27.008Z,25.40
2022-08-11T17:51:00.759Z,25.40
2022-08-11T17:54:10.039Z,25.40
2022-08-11T17:57:03.220Z,25.30
2022-08-11T17:59:51.073Z,25.20
2022-08-11T18:02:41.275Z,25.10
2022-08-11T18:05:13.803Z,25.10
2022-08-11T18:08:01.814Z,24.90
2022-08-11T18:10:50.683Z,24.80
2022-08-11T18:13:42.624Z,24.70
2022-08-11T18:16:29.640Z,24.60
2022-08-11T18:19:17.080Z,24.60
2022-08-11T18:22:14.864Z,24.60
2022-08-11T18:25:13.199Z,24.50
2022-08-11T18:28:03.193Z,24.40
2022-08-11T18:31:03.868Z,24.30
2022-08-11T18:34:07.337Z,24.20
2022-08-11T18:37:20.636Z,24.10
2022-08-11T18:40:16.127Z,24.00
2022-08-11T18:43:06.175Z,23.90
2022-08-11T18:46:06.551Z,23.90
2022-08-11T18:49:04.567Z,23.80
2022-08-11T18:51:52.413Z,23.70
2022-08-11T18:54:53.228Z,23.70
2022-08-11T18:57:49.647Z,23.70
2022-08-11T19:00:44.954Z,23.70
2022-08-11T19:03:43.170Z,23.70
2022-08-11T19:06:40.727Z,23.70
2022-08-11T19:09:32.424Z,23.70
2022-08-11T19:12:20.459Z,23.60
2022-08-11T19:15:09.274Z,23.60
2022-08-11T19:17:59.988Z,23.50
2022-08-11T19:20:49.587Z,23.50
2022-08-11T19:23:43.446Z,23.50
2022-08-11T19:26:30.222Z,23.50
2022-08-11T19:30:07.992Z,23.40
2022-08-11T19:32:25.157Z,23.20
2022-08-11T19:35:12.050Z,23.00
2022-08-11T19:37:59.550Z,22.80
2022-08-11T19:40:47.949Z,22.70
2022-08-11T19:43:36.958Z,22.70
2022-08-11T19:46:25.733Z,22.60
2022-08-11T19:49:14.820Z,22.60
2022-08-11T19:52:02.837Z,22.50
2022-08-11T19:54:52.797Z,22.50
2022-08-11T19:57:40.601Z,22.40
2022-08-11T20:00:31.409Z,22.40
2022-08-11T20:03:20.122Z,22.40
2022-08-11T20:06:09.597Z,22.50
2022-08-11T20:09:00.705Z,22.60
2022-08-11T20:11:54.593Z,22.60
2022-08-11T20:14:42.786Z,22.70
2022-08-11T20:17:33.118Z,22.60
2022-08-11T20:20:23.809Z,22.50
2022-08-11T20:23:13.083Z,22.30
2022-08-11T20:26:14.113Z,22.20
2022-08-11T20:29:08.994Z,22.20
2022-08-11T20:31:55.929Z,22.30
2022-08-11T20:34:42.597Z,22.20
2022-08-11T20:37:30.954Z,22.10
2022-08-11T20:40:23.600Z,22.00
2022-08-11T20:44:05.099Z,22.00
2022-08-11T20:46:20.839Z,21.90
2022-08-11T20:49:09.911Z,21.90
2022-08-11T20:52:01.536Z,21.80
2022-08-11T20:54:53.247Z,21.70
2022-08-11T20:57:59.284Z,21.80
2022-08-11T21:00:47.541Z,21.90
2022-08-11T21:03:36.246Z,22.00
2022-08-11T21:06:33.502Z,22.00
2022-08-11T21:09:23.934Z,22.00
2022-08-11T21:12:31.546Z,21.90
2022-08-11T21:15:38.821Z,22.00
2022-08-11T21:18:28.308Z,21.90
2022-08-11T21:21:20.850Z,22.00
2022-08-11T21:24:11.239Z,22.10
2022-08-11T21:27:03.603Z,22.10
2022-08-11T21:29:53.642Z,22.00
2022-08-11T21:32:42.455Z,21.80
2022-08-11T21:35:30.215Z,21.50
2022-08-11T21:38:17.695Z,21.20
2022-08-11T21:41:07.066Z,21.10
2022-08-11T21:43:54.603Z,21.10
2022-08-11T21:46:42.711Z,21.10
2022-08-11T21:49:30.436Z,21.20
2022-08-11T21:52:16.805Z,21.20
2022-08-11T21:55:03.563Z,21.10
2022-08-11T21:57:50.713Z,21.10
2022-08-11T22:00:37.406Z,21.00
2022-08-11T22:03:23.925Z,20.90
2022-08-11T22:06:12.218Z,20.70
2022-08-11T22:09:01.233Z,20.70
2022-08-11T22:11:47.554Z,20.90
2022-08-11T22:14:34.211Z,21.00
2022-08-11T22:17:20.564Z,21.10
2022-08-11T22:20:07.202Z,21.10
2022-08-11T22:22:54.781Z,21.00
2022-08-11T22:25:51.575Z,21.00
2022-08-11T22:28:38.835Z,21.00
2022-08-11T22:31:27.210Z,21.00
2022-08-11T22:34:13.861Z,21.00
2022-08-11T22:37:02.554Z,21.00
2022-08-11T22:39:59.550Z,21.00
2022-08-11T22:42:51.305Z,20.90
2022-08-11T22:45:39.117Z,20.60
2022-08-11T22:48:28.030Z,20.50
2022-08-11T22:51:15.688Z,20.40
2022-08-11T22:54:03.847Z,20.60
2022-08-11T22:56:51.699Z,20.60
2022-08-11T22:59:39.550Z,20.50
2022-08-11T23:02:26.121Z,20.30
2022-08-11T23:05:13.467Z,20.30
2022-08-11T23:08:00.801Z,20.30
2022-08-11T23:10:48.345Z,20.30
2022-08-11T23:13:35.035Z,20.40
2022-08-11T23:16:21.843Z,20.30
2022-08-11T23:19:09.702Z,20.20
2022-08-11T23:21:57.164Z,20.20
2022-08-11T23:24:44.051Z,20.20
2022-08-11T23:27:32.302Z,20.40
2022-08-11T23:30:20.271Z,20.50
2022-08-11T23:33:11.077Z,20.50
2022-08-11T23:36:04.571Z,20.40
2022-08-11T23:38:52.211Z,20.40
2022-08-11T23:41:39.072Z,20.40
2022-08-11T23:44:26.985Z,20.20
2022-08-11T23:47:20.326Z,20.00
2022-08-11T23:50:07.036Z,19.90
2022-08-11T23:52:54.634Z,19.90
2022-08-11T23:55:41.343Z,19.70
2022-08-11T23:58:28.140Z,19.50
